Terminal Aerodrome Forecast
Issued by NWS Wilmington, OH

Current Version | Previous Version | Text Only | Print | Product List | Glossary Off
Versions: 1 2 3 4 5 6 7 8 9 10 11 12 13 14 15 16 17 18 19 20

167
FTUS41 KILN 200303 AAB
TAFILN
TAF AMD
KILN 200303Z 2003/2024 11008KT P6SM VCSH OVC060
     FM200500 11008KT 5SM -RA BR OVC025
      TEMPO 2006/2010 3SM RA BR OVC015
     FM201000 16008KT 3SM -RA BR OVC007
     FM201300 20007KT 4SM BR VCSH OVC005
     FM201500 22009KT P6SM OVC007
     FM202100 20007KT P6SM BKN018=

USA.gov is the U.S. government's official web portal to all federal, state and local government web resources and services.